Time;durP1;ratioP1;P1;durP2;ratioP2;P2;SDS_P1;SDS_P2;PMS_P1;PMS_P2;Temp;Humidity;BMP_temperature;BMP_pressure;BME280_temperature;BME280_humidity;BME280_pressure;Samples;Min_cycle;Max_cycle;Signal;HPM_P1;HPM_P2
2021/04/04 00:01:43;;;;;;;25.38;8.75;;;5.20;99.90;;;;;;5009868;28;20121;-58
2021/04/04 00:04:11;;;;;;;26.88;8.63;;;5.20;99.90;;;;;;5010748;28;20383;-58
2021/04/04 00:06:37;;;;;;;24.67;8.32;;;5.30;99.90;;;;;;5011131;28;20034;-59
2021/04/04 00:09:03;;;;;;;23.63;7.85;;;5.30;99.90;;;;;;5009621;28;20479;-58
2021/04/04 00:11:28;;;;;;;26.95;9.20;;;5.20;99.90;;;;;;5006405;28;20070;-56
2021/04/04 00:13:56;;;;;;;25.42;8.10;;;5.30;99.90;;;;;;5033839;23;20057;-63
2021/04/04 00:16:25;;;;;;;23.83;7.72;;;5.30;99.90;;;;;;4987339;28;20029;-63
2021/04/04 00:18:55;;;;;;;26.27;8.48;;;5.30;99.90;;;;;;5006853;28;20534;-64
2021/04/04 00:21:27;;;;;;;21.60;8.32;;;5.30;99.90;;;;;;5011551;28;20022;-62
2021/04/04 00:23:52;;;;;;;27.88;9.93;;;5.20;99.90;;;;;;5013078;28;20474;-60
2021/04/04 00:26:18;;;;;;;23.60;8.40;;;5.20;99.90;;;;;;5011730;28;20029;-61
2021/04/04 00:28:49;;;;;;;22.35;7.75;;;5.30;99.90;;;;;;5013141;28;20069;-63
2021/04/04 00:31:17;;;;;;;26.20;9.30;;;5.40;99.90;;;;;;5013700;28;20026;-64
2021/04/04 00:33:43;;;;;;;20.02;8.35;;;5.40;99.90;;;;;;5011269;28;20022;-64
2021/04/04 00:36:14;;;;;;;30.58;9.02;;;5.40;99.90;;;;;;5012685;28;20109;-62
2021/04/04 00:39:01;;;;;;;24.60;8.43;;;5.40;99.90;;;;;;5012787;28;20025;-63
2021/04/04 00:41:31;;;;;;;22.55;9.65;;;5.40;99.90;;;;;;5012530;28;20038;-63
2021/04/04 00:43:57;;;;;;;27.83;9.15;;;5.40;99.90;;;;;;5011009;28;20033;-62
2021/04/04 00:46:22;;;;;;;24.30;9.65;;;5.40;99.90;;;;;;5011754;28;20048;-63
2021/04/04 00:48:53;;;;;;;30.42;9.45;;;5.40;99.90;;;;;;5011590;28;20525;-64
2021/04/04 00:51:19;;;;;;;26.98;9.63;;;5.40;99.90;;;;;;5011369;28;20087;-64
2021/04/04 00:53:45;;;;;;;24.67;8.82;;;5.40;99.90;;;;;;5012381;28;20025;-63
2021/04/04 00:56:18;;;;;;;29.58;9.40;;;5.30;99.90;;;;;;5011425;28;20033;-62
2021/04/04 00:58:53;;;;;;;25.27;8.07;;;5.40;99.90;;;;;;5011556;28;20037;-64
2021/04/04 01:01:21;;;;;;;26.42;9.15;;;5.50;99.90;;;;;;5012145;28;20487;-64
2021/04/04 01:03:46;;;;;;;25.45;8.73;;;5.50;99.90;;;;;;5010638;28;20022;-63
2021/04/04 01:06:12;;;;;;;25.38;9.20;;;5.50;99.90;;;;;;5011169;28;20060;-63
2021/04/04 01:08:40;;;;;;;23.50;9.80;;;5.60;99.90;;;;;;5011961;28;20057;-62
2021/04/04 01:11:07;;;;;;;26.33;12.32;;;5.70;99.90;;;;;;5010857;28;20022;-63
2021/04/04 01:13:55;;;;;;;23.77;10.20;;;5.70;99.90;;;;;;5011720;28;20034;-60
2021/04/04 01:16:30;;;;;;;23.48;9.48;;;5.70;99.90;;;;;;5012276;28;20534;-63
2021/04/04 01:19:16;;;;;;;25.92;9.65;;;5.80;99.90;;;;;;5006670;28;20037;-63
2021/04/04 01:21:54;;;;;;;21.60;8.35;;;5.70;99.90;;;;;;5008651;28;20030;-64
2021/04/04 01:24:53;;;;;;;28.23;9.27;;;5.90;99.90;;;;;;5011811;28;20100;-63
2021/04/04 01:27:18;;;;;;;;;;;6.00;99.90;;;;;;5010838;28;20068;-64
2021/04/04 01:29:49;;;;;;;22.75;9.18;;;6.00;99.90;;;;;;5012007;28;19906;-63
2021/04/04 01:32:14;;;;;;;24.23;9.98;;;5.90;99.90;;;;;;5011459;28;20018;-63
2021/04/04 01:34:49;;;;;;;24.60;9.48;;;5.90;99.90;;;;;;5011689;28;20033;-63
2021/04/04 01:37:16;;;;;;;25.35;8.98;;;5.90;99.90;;;;;;5011813;28;20026;-64
2021/04/04 01:40:11;;;;;;;;;;;;;;;;;;;;;
2021/04/04 01:42:44;;;;;;;22.40;8.85;;;5.90;99.90;;;;;;5011725;28;20022;-62
2021/04/04 01:45:16;;;;;;;30.73;9.80;;;6.10;99.90;;;;;;5011329;28;20525;-63
2021/04/04 01:48:19;;;;;;;24.77;9.70;;;6.00;99.90;;;;;;5010103;28;20049;-62
2021/04/04 01:50:45;;;;;;;23.80;9.65;;;6.00;99.90;;;;;;5011152;28;20034;-64
2021/04/04 01:53:26;;;;;;;22.10;9.05;;;5.90;99.90;;;;;;5010129;28;20069;-63
2021/04/04 01:55:55;;;;;;;26.60;9.55;;;6.00;99.90;;;;;;5011544;28;20096;-62
2021/04/04 01:58:33;;;;;;;;;;;;;;;;;;;;;
2021/04/04 02:01:16;;;;;;;28.98;11.18;;;5.90;99.90;;;;;;5011915;28;19905;-63
2021/04/04 02:03:45;;;;;;;23.75;9.80;;;5.90;99.90;;;;;;5011127;28;20059;-64
2021/04/04 02:06:19;;;;;;;23.75;10.35;;;6.00;99.90;;;;;;5009827;28;20022;-64
2021/04/04 02:08:56;;;;;;;26.20;10.32;;;6.00;99.90;;;;;;5011211;28;20030;-64
2021/04/04 02:11:36;;;;;;;27.23;10.98;;;6.10;99.90;;;;;;5009976;28;20113;-63
2021/04/04 02:14:13;;;;;;;27.23;10.57;;;6.10;99.90;;;;;;5010894;28;20483;-61
2021/04/04 02:16:54;;;;;;;22.83;10.25;;;6.10;99.90;;;;;;5010144;28;20030;-63
2021/04/04 02:22:20;;;;;;;24.17;11.05;;;6.10;99.90;;;;;;5003964;28;20415;-63
2021/04/04 02:24:50;;;;;;;27.88;10.70;;;6.10;99.90;;;;;;5010874;28;20041;-64
2021/04/04 02:27:18;;;;;;;26.90;11.60;;;6.10;99.90;;;;;;5011296;28;20121;-62
2021/04/04 02:29:52;;;;;;;24.60;10.43;;;6.10;99.90;;;;;;5009755;28;20093;-63
2021/04/04 02:32:27;;;;;;;45.60;18.67;;;6.10;99.90;;;;;;5009476;28;20046;-62
2021/04/04 02:35:11;;;;;;;29.92;10.50;;;6.00;99.90;;;;;;5010507;28;20022;-63
2021/04/04 02:37:51;;;;;;;21.80;9.85;;;6.10;99.90;;;;;;5009784;28;20053;-62
2021/04/04 02:40:26;;;;;;;26.33;11.70;;;6.20;99.90;;;;;;5011940;28;20026;-64
2021/04/04 02:43:05;;;;;;;27.42;9.40;;;6.10;99.90;;;;;;5009611;28;20030;-63
2021/04/04 02:45:40;;;;;;;34.03;11.55;;;6.10;99.90;;;;;;5009481;28;20080;-64
2021/04/04 02:48:22;;;;;;;29.48;14.00;;;6.10;99.90;;;;;;5009794;28;20057;-64
2021/04/04 02:50:55;;;;;;;28.65;12.73;;;6.00;99.90;;;;;;5009406;28;20029;-61
2021/04/04 02:53:21;;;;;;;24.45;9.40;;;6.00;99.90;;;;;;5009386;28;20083;-64
2021/04/04 02:55:48;;;;;;;26.02;11.38;;;6.00;99.90;;;;;;5009626;28;20423;-63
2021/04/04 02:58:18;;;;;;;37.95;18.42;;;6.10;99.90;;;;;;5009714;28;20046;-63
2021/04/04 03:00:45;;;;;;;24.00;11.35;;;6.10;99.90;;;;;;5009728;28;20033;-65
2021/04/04 03:03:13;;;;;;;26.52;10.52;;;6.10;99.90;;;;;;5009484;28;20030;-62
2021/04/04 03:05:39;;;;;;;24.65;11.35;;;6.10;99.90;;;;;;5010130;28;20037;-64
2021/04/04 03:08:07;;;;;;;20.55;10.85;;;6.00;99.90;;;;;;5013157;28;20372;-65
2021/04/04 03:10:34;;;;;;;27.02;12.18;;;6.00;99.90;;;;;;5012982;28;20522;-64
2021/04/04 03:13:01;;;;;;;28.75;11.65;;;6.10;99.90;;;;;;5012560;28;20495;-62
2021/04/04 03:15:28;;;;;;;24.45;11.75;;;6.10;99.90;;;;;;5012559;28;20411;-64
2021/04/04 03:17:56;;;;;;;27.10;11.68;;;6.10;99.90;;;;;;5012894;28;20084;-62
2021/04/04 03:20:22;;;;;;;21.42;11.05;;;6.10;99.90;;;;;;5008262;28;20109;-62
2021/04/04 03:22:49;;;;;;;32.80;12.63;;;6.00;99.90;;;;;;5007966;28;20191;-63
2021/04/04 03:25:17;;;;;;;25.80;11.32;;;6.00;99.90;;;;;;5013434;28;20437;-64
2021/04/04 03:27:45;;;;;;;26.23;11.52;;;6.00;99.90;;;;;;5012625;28;20022;-64
2021/04/04 03:30:57;;;;;;;;;;;6.10;99.90;;;;;;5013310;28;20045;-65
2021/04/04 03:32:59;;;;;;;25.58;10.85;;;5.90;99.90;;;;;;5010146;28;19921;-65
2021/04/04 03:35:26;;;;;;;22.95;10.68;;;5.80;99.90;;;;;;5014103;28;20056;-65
2021/04/04 03:37:53;;;;;;;23.15;11.73;;;5.90;99.90;;;;;;5013853;28;20495;-65
2021/04/04 03:40:20;;;;;;;27.42;10.45;;;5.80;99.90;;;;;;5012435;28;20034;-63
2021/04/04 03:42:47;;;;;;;25.02;10.68;;;5.80;99.90;;;;;;5012238;28;20399;-65
2021/04/04 03:45:15;;;;;;;24.20;10.13;;;5.80;99.90;;;;;;5013377;28;20415;-64
2021/04/04 03:47:41;;;;;;;21.77;9.87;;;5.80;99.90;;;;;;5013352;28;20374;-62
2021/04/04 03:50:09;;;;;;;29.55;10.18;;;5.80;99.90;;;;;;5012125;28;20795;-63
2021/04/04 03:52:36;;;;;;;24.58;10.10;;;5.80;99.90;;;;;;5013143;28;20030;-63
2021/04/04 03:55:03;;;;;;;22.13;9.73;;;5.80;99.90;;;;;;5011839;28;20034;-64
2021/04/04 03:57:29;;;;;;;23.60;10.43;;;5.90;99.90;;;;;;5012247;28;20026;-63
2021/04/04 03:59:56;;;;;;;25.88;10.57;;;5.90;99.90;;;;;;5013300;28;20072;-56
2021/04/04 04:02:24;;;;;;;25.20;10.68;;;5.90;99.90;;;;;;5013324;28;20029;-63
2021/04/04 04:04:50;;;;;;;22.38;11.30;;;6.00;99.90;;;;;;5012941;28;20036;-63
2021/04/04 04:07:17;;;;;;;25.00;10.75;;;5.90;99.90;;;;;;5011906;28;20070;-63
2021/04/04 04:09:43;;;;;;;25.75;11.00;;;5.90;99.90;;;;;;5013022;28;20033;-65
2021/04/04 04:12:09;;;;;;;25.23;10.63;;;5.80;99.90;;;;;;5013077;28;20030;-62
2021/04/04 04:14:36;;;;;;;23.67;10.30;;;5.80;99.90;;;;;;5011575;28;20026;-62
2021/04/04 04:17:05;;;;;;;18.95;10.23;;;5.80;99.90;;;;;;5012100;28;20039;-62
2021/04/04 04:19:31;;;;;;;25.25;10.50;;;5.70;99.90;;;;;;5013129;28;20022;-61
2021/04/04 04:21:57;;;;;;;27.65;11.07;;;5.70;99.90;;;;;;5012841;28;20399;-56
2021/04/04 04:24:24;;;;;;;26.38;11.60;;;5.80;99.90;;;;;;5011282;28;20034;-62
2021/04/04 04:26:50;;;;;;;24.17;10.35;;;5.80;99.90;;;;;;5012795;28;20026;-64
2021/04/04 04:29:18;;;;;;;24.73;10.50;;;5.80;99.90;;;;;;5011476;28;20564;-62
2021/04/04 04:31:46;;;;;;;24.00;10.87;;;5.70;99.90;;;;;;5011565;28;20034;-63
2021/04/04 04:34:12;;;;;;;20.83;9.68;;;5.80;99.90;;;;;;5011075;28;20125;-62
2021/04/04 04:36:40;;;;;;;20.85;10.15;;;5.70;99.90;;;;;;5011544;28;20045;-63
2021/04/04 04:39:08;;;;;;;30.45;11.68;;;5.80;99.90;;;;;;5012707;28;20060;-63
2021/04/04 04:41:35;;;;;;;;;;;6.00;99.90;;;;;;5012131;28;20057;-63
2021/04/04 04:44:04;;;;;;;24.30;9.75;;;5.90;99.90;;;;;;5012405;28;19905;-63
2021/04/04 04:46:31;;;;;;;22.10;10.77;;;5.90;99.90;;;;;;5011498;28;20660;-62
2021/04/04 04:48:58;;;;;;;33.00;10.98;;;5.90;99.90;;;;;;5012558;28;20456;-63
2021/04/04 04:51:24;;;;;;;25.48;11.65;;;5.80;99.90;;;;;;5012370;28;20681;-63
2021/04/04 04:53:50;;;;;;;22.67;11.60;;;5.80;99.90;;;;;;5012089;28;20181;-63
2021/04/04 04:56:18;;;;;;;23.42;11.65;;;5.80;99.90;;;;;;5011239;28;20036;-63
2021/04/04 04:58:44;;;;;;;26.45;12.60;;;5.70;99.90;;;;;;5012182;28;20032;-63
2021/04/04 05:01:24;;;;;;;26.17;12.32;;;5.80;99.90;;;;;;5011280;28;20029;-64
2021/04/04 05:03:50;;;;;;;24.38;12.18;;;5.80;99.90;;;;;;5010484;28;20538;-63
2021/04/04 05:06:18;;;;;;;28.15;13.57;;;5.80;99.90;;;;;;5010652;28;20018;-63
2021/04/04 05:08:45;;;;;;;24.65;11.68;;;5.80;99.90;;;;;;5012607;28;20037;-63
2021/04/04 05:11:16;;;;;;;31.80;12.43;;;5.80;99.90;;;;;;5012350;28;20422;-63
2021/04/04 05:13:43;;;;;;;29.75;13.35;;;5.90;99.90;;;;;;5010337;28;20512;-64
2021/04/04 05:16:15;;;;;;;28.52;13.02;;;5.90;99.90;;;;;;5012112;28;20056;-63
2021/04/04 05:18:49;;;;;;;22.95;12.55;;;6.00;99.90;;;;;;5012157;28;20422;-63
2021/04/04 05:21:30;;;;;;;27.25;13.77;;;5.90;99.90;;;;;;5010791;28;20022;-64
2021/04/04 05:24:03;;;;;;;25.80;13.63;;;5.80;99.90;;;;;;5011753;28;20025;-63
2021/04/04 05:26:34;;;;;;;28.52;13.52;;;5.80;99.90;;;;;;5010517;28;20156;-63
2021/04/04 05:29:02;;;;;;;27.92;13.05;;;5.80;99.90;;;;;;5011617;28;20026;-63
2021/04/04 05:31:29;;;;;;;25.90;12.13;;;5.80;99.90;;;;;;5011874;28;20033;-62
2021/04/04 05:33:55;;;;;;;24.92;12.07;;;5.90;99.90;;;;;;5011727;28;20025;-62
2021/04/04 05:36:21;;;;;;;20.10;11.60;;;5.90;99.90;;;;;;5012252;28;20021;-62
2021/04/04 05:38:46;;;;;;;24.65;11.45;;;5.90;99.90;;;;;;5010440;28;20040;-64
2021/04/04 05:41:14;;;;;;;25.33;10.85;;;5.90;99.90;;;;;;5010388;28;20109;-64
2021/04/04 05:43:45;;;;;;;21.20;9.60;;;5.90;99.90;;;;;;5010095;28;20555;-63
2021/04/04 05:46:35;;;;;;;18.45;9.48;;;5.80;99.90;;;;;;5010345;28;20029;-63
2021/04/04 05:49:25;;;;;;;19.67;8.77;;;5.80;99.90;;;;;;5005514;28;20036;-63
2021/04/04 05:51:58;;;;;;;18.65;8.52;;;5.70;99.90;;;;;;5011337;28;20399;-63
2021/04/04 05:54:57;;;;;;;23.33;10.55;;;5.70;99.90;;;;;;5011172;28;20072;-63
2021/04/04 05:57:35;;;;;;;28.17;10.30;;;5.70;99.90;;;;;;5011350;28;20506;-63
2021/04/04 06:00:05;;;;;;;21.95;8.95;;;5.70;99.90;;;;;;5010163;28;20022;-63
2021/04/04 06:02:52;;;;;;;24.85;9.25;;;5.80;99.90;;;;;;5011119;28;20049;-62
2021/04/04 06:05:39;;;;;;;19.92;8.40;;;5.70;99.90;;;;;;5009824;28;20619;-63
2021/04/04 06:08:17;;;;;;;18.45;8.00;;;5.80;99.90;;;;;;5011450;28;20038;-63
2021/04/04 06:11:01;;;;;;;18.63;7.20;;;5.70;99.90;;;;;;5011844;28;20030;-63
2021/04/04 06:13:58;;;;;;;19.35;7.63;;;5.80;99.90;;;;;;5030026;23;20081;-60
2021/04/04 06:16:48;;;;;;;18.63;7.43;;;5.90;99.90;;;;;;5003737;28;20035;-58
2021/04/04 06:19:17;;;;;;;21.48;7.72;;;5.70;99.90;;;;;;5012408;28;20519;-57
2021/04/04 06:22:08;;;;;;;20.20;7.15;;;5.80;99.90;;;;;;5024354;28;20125;-58
2021/04/04 06:24:48;;;;;;;20.23;7.43;;;5.90;99.90;;;;;;5005666;28;20049;-57
2021/04/04 06:27:49;;;;;;;18.48;7.65;;;5.80;99.90;;;;;;5011078;28;20498;-58
2021/04/04 06:33:23;;;;;;;17.65;7.38;;;5.90;99.90;;;;;;5012274;28;20029;-57
2021/04/04 06:36:03;;;;;;;17.65;6.85;;;6.00;99.90;;;;;;5012048;28;20033;-59
2021/04/04 06:38:59;;;;;;;19.98;6.68;;;5.90;99.90;;;;;;5011960;28;20025;-59
2021/04/04 06:41:45;;;;;;;23.90;8.35;;;5.90;99.90;;;;;;5014412;28;20472;-59
2021/04/04 06:44:17;;;;;;;18.35;7.22;;;5.70;99.90;;;;;;5015557;28;20399;-55
2021/04/04 06:46:43;;;;;;;23.95;7.70;;;5.90;99.90;;;;;;5015690;28;20022;-54
2021/04/04 06:49:39;;;;;;;17.55;6.53;;;5.90;99.90;;;;;;5015821;28;20018;-55
2021/04/04 06:52:25;;;;;;;19.02;7.53;;;5.90;99.90;;;;;;5014544;28;20491;-59
2021/04/04 06:55:06;;;;;;;20.77;8.57;;;5.90;99.90;;;;;;5014373;28;20026;-57
2021/04/04 06:58:20;;;;;;;20.70;8.07;;;5.90;99.90;;;;;;5015635;28;20044;-56
2021/04/04 07:01:25;;;;;;;16.35;6.63;;;5.90;99.90;;;;;;5015375;28;20180;-55
2021/04/04 07:04:03;;;;;;;19.63;7.55;;;5.90;99.90;;;;;;5013991;28;20060;-59
2021/04/04 07:06:50;;;;;;;19.05;7.78;;;6.00;99.90;;;;;;5014288;28;20035;-59
2021/04/04 07:09:40;;;;;;;20.55;8.50;;;6.10;99.90;;;;;;5015651;28;20387;-59
2021/04/04 07:12:39;;;;;;;21.67;8.70;;;6.00;99.90;;;;;;5015546;28;20029;-59
2021/04/04 07:15:17;;;;;;;21.02;7.38;;;5.90;99.90;;;;;;5013849;28;20030;-58
2021/04/04 07:18:16;;;;;;;20.10;7.10;;;5.80;99.90;;;;;;5015699;28;20037;-59
2021/04/04 07:21:09;;;;;;;20.10;7.55;;;5.70;99.90;;;;;;5015919;28;20431;-55
2021/04/04 07:24:01;;;;;;;18.23;7.38;;;5.70;99.90;;;;;;5015146;28;20045;-57
2021/04/04 07:27:04;;;;;;;27.63;7.70;;;5.60;99.90;;;;;;5005473;28;20069;-59
2021/04/04 07:30:03;;;;;;;25.40;8.45;;;5.40;99.90;;;;;;5014438;28;20022;-59
2021/04/04 07:32:55;;;;;;;18.45;8.07;;;5.40;99.90;;;;;;5014851;28;20018;-57
2021/04/04 07:35:26;;;;;;;27.38;8.38;;;5.60;99.90;;;;;;5013392;28;20482;-57
2021/04/04 07:38:29;;;;;;;22.67;8.55;;;5.80;99.90;;;;;;5013862;28;20025;-59
2021/04/04 07:41:25;;;;;;;22.65;8.40;;;6.00;99.90;;;;;;5012011;28;20084;-57
2021/04/04 07:44:07;;;;;;;18.80;7.60;;;6.30;99.90;;;;;;5014407;28;20026;-59
2021/04/04 07:47:00;;;;;;;21.50;7.80;;;6.00;99.90;;;;;;5014642;28;20053;-52
2021/04/04 07:49:35;;;;;;;20.35;7.93;;;6.30;99.90;;;;;;5014850;28;20022;-58
2021/04/04 07:52:03;;;;;;;22.83;7.80;;;;;;;;;;5014809;28;20541;-56
2021/04/04 07:54:47;;;;;;;19.15;7.10;;;;;;;;;;5013001;28;20053;-57
2021/04/04 07:57:34;;;;;;;24.40;8.43;;;6.50;99.90;;;;;;5014631;28;20029;-59
2021/04/04 08:00:08;;;;;;;15.30;6.47;;;7.30;99.90;;;;;;5006443;28;20050;-55
2021/04/04 08:02:57;;;;;;;16.80;7.10;;;7.40;99.90;;;;;;5013981;28;20088;-58
2021/04/04 08:05:32;;;;;;;16.60;7.00;;;7.10;99.90;;;;;;4993551;28;20022;-52
2021/04/04 08:08:03;;;;;;;18.23;6.90;;;6.90;99.90;;;;;;5009725;28;20032;-53
2021/04/04 08:10:59;;;;;;;18.35;6.97;;;7.00;99.90;;;;;;5013060;28;20039;-52
2021/04/04 08:13:41;;;;;;;20.25;7.53;;;7.10;99.90;;;;;;5013432;28;20037;-48
2021/04/04 08:16:14;;;;;;;16.98;6.78;;;7.00;99.90;;;;;;5013302;28;20448;-49
2021/04/04 08:18:49;;;;;;;18.88;7.10;;;7.20;99.90;;;;;;5014178;28;20053;-51
2021/04/04 08:21:26;;;;;;;15.85;7.03;;;7.30;99.90;;;;;;5012428;28;20018;-54
2021/04/04 08:23:51;;;;;;;16.50;6.95;;;7.10;99.90;;;;;;5012538;28;20022;-50
2021/04/04 08:26:30;;;;;;;15.00;6.47;;;6.70;99.90;;;;;;5012469;28;20045;-53
2021/04/04 08:29:13;;;;;;;16.50;6.30;;;6.80;99.90;;;;;;5013446;28;20487;-49
2021/04/04 08:32:11;;;;;;;14.63;6.35;;;6.80;99.90;;;;;;4992765;28;20134;-51
2021/04/04 08:34:43;;;;;;;14.98;6.40;;;6.70;99.90;;;;;;5008824;28;20014;-52
2021/04/04 08:37:20;;;;;;;16.20;6.00;;;6.90;99.90;;;;;;5013040;28;20030;-49
2021/04/04 08:39:54;;;;;;;14.13;5.30;;;6.40;99.90;;;;;;4993993;28;20044;-49
2021/04/04 08:42:25;;;;;;;11.57;5.22;;;6.40;99.90;;;;;;4993969;28;20056;-45
2021/04/04 08:44:53;;;;;;;14.52;5.57;;;6.90;99.90;;;;;;4998528;28;20034;-51
2021/04/04 08:47:32;;;;;;;16.02;5.75;;;6.70;99.90;;;;;;5010617;28;20034;-47
2021/04/04 08:50:01;;;;;;;11.98;5.80;;;6.80;99.90;;;;;;5004813;28;20113;-49
2021/04/04 08:52:53;;;;;;;14.18;5.90;;;7.00;99.90;;;;;;5012375;28;20038;-46
2021/04/04 08:55:29;;;;;;;12.18;5.70;;;7.10;99.90;;;;;;4982914;28;20491;-48
2021/04/04 08:58:00;;;;;;;13.60;5.70;;;7.10;99.90;;;;;;5003783;28;20402;-49
2021/04/04 09:00:29;;;;;;;13.07;5.68;;;7.20;99.90;;;;;;5012468;28;20109;-48
2021/04/04 09:03:16;;;;;;;14.07;6.05;;;7.20;99.90;;;;;;5009892;28;20022;-52
2021/04/04 09:05:42;;;;;;;14.10;5.82;;;7.20;99.90;;;;;;5011473;28;20026;-46
2021/04/04 09:08:08;;;;;;;13.95;5.95;;;7.20;99.90;;;;;;5012806;28;20032;-49
2021/04/04 09:10:38;;;;;;;14.60;6.07;;;7.20;99.90;;;;;;5012785;28;20022;-47
2021/04/04 09:13:14;;;;;;;16.15;6.05;;;7.00;99.90;;;;;;5012763;28;20038;-48
2021/04/04 09:15:51;;;;;;;19.55;7.18;;;6.90;99.90;;;;;;5011305;28;20033;-48
2021/04/04 09:18:18;;;;;;;15.45;6.10;;;6.90;99.90;;;;;;5012086;28;20042;-49
2021/04/04 09:20:45;;;;;;;14.45;5.90;;;7.00;99.90;;;;;;5005469;28;20054;-51
2021/04/04 09:23:14;;;;;;;16.85;5.88;;;7.10;99.90;;;;;;5013015;28;20033;-49
2021/04/04 09:25:52;;;;;;;15.10;6.22;;;7.10;99.90;;;;;;5011355;28;20116;-49
2021/04/04 09:28:20;;;;;;;15.13;6.13;;;7.30;99.90;;;;;;5012537;28;20380;-51
2021/04/04 09:30:46;;;;;;;13.65;5.60;;;7.40;99.90;;;;;;5012905;28;20041;-53
2021/04/04 09:33:15;;;;;;;12.98;5.80;;;7.30;99.90;;;;;;5013183;28;20025;-49
2021/04/04 09:35:42;;;;;;;13.68;5.72;;;7.30;99.90;;;;;;5012979;28;20487;-48
2021/04/04 09:38:15;;;;;;;13.60;5.70;;;7.50;99.90;;;;;;5011804;28;20113;-47
2021/04/04 09:40:44;;;;;;;13.35;5.70;;;7.40;99.90;;;;;;5012934;28;20137;-50
2021/04/04 09:43:15;;;;;;;17.15;6.68;;;7.60;99.90;;;;;;5011946;28;20116;-56
2021/04/04 09:45:41;;;;;;;14.88;5.75;;;7.70;99.90;;;;;;5012451;28;20105;-53
2021/04/04 09:48:24;;;;;;;12.90;5.50;;;7.30;99.90;;;;;;4995089;28;20030;-53
2021/04/04 09:51:09;;;;;;;15.25;5.88;;;7.10;99.90;;;;;;4998023;28;20034;-52
2021/04/04 09:53:40;;;;;;;12.98;5.53;;;7.20;99.90;;;;;;5011236;28;20152;-50
2021/04/04 09:56:07;;;;;;;11.70;5.70;;;7.10;99.90;;;;;;5010551;28;20052;-55
2021/04/04 09:58:33;;;;;;;12.18;5.40;;;7.10;99.90;;;;;;5010852;28;20026;-50
2021/04/04 10:01:01;;;;;;;13.43;5.20;;;7.00;99.90;;;;;;5010974;28;20026;-50
2021/04/04 10:03:27;;;;;;;14.02;5.60;;;6.80;99.90;;;;;;5011264;28;20044;-54
2021/04/04 10:05:53;;;;;;;13.95;5.30;;;6.60;99.90;;;;;;5011807;28;20021;-51
2021/04/04 10:08:25;;;;;;;15.10;5.95;;;6.50;99.90;;;;;;5012027;28;20040;-49
2021/04/04 10:10:56;;;;;;;12.40;5.32;;;6.60;99.90;;;;;;5012280;28;20049;-54
2021/04/04 10:13:25;;;;;;;12.93;5.45;;;6.60;99.90;;;;;;5015534;28;20041;-53
2021/04/04 10:15:51;;;;;;;;;;;6.70;99.90;;;;;;5015634;28;20418;-47
2021/04/04 10:18:18;;;;;;;14.18;5.82;;;6.70;99.90;;;;;;5014817;28;19916;-53
2021/04/04 10:20:53;;;;;;;12.98;5.78;;;6.80;99.90;;;;;;5016386;28;20100;-52
2021/04/04 10:23:29;;;;;;;12.70;5.60;;;6.80;99.90;;;;;;5016086;28;20198;-49
2021/04/04 10:25:59;;;;;;;15.40;6.25;;;6.90;99.90;;;;;;5014379;28;20216;-54
2021/04/04 10:28:39;;;;;;;15.98;5.60;;;7.00;99.90;;;;;;4996124;28;20105;-51
2021/04/04 10:31:05;;;;;;;13.60;5.50;;;7.10;99.90;;;;;;4996662;28;20030;-52
2021/04/04 10:33:30;;;;;;;16.23;5.85;;;7.10;99.90;;;;;;4996083;28;20058;-51
2021/04/04 10:35:56;;;;;;;14.88;6.22;;;7.00;99.90;;;;;;4995246;28;20022;-53
2021/04/04 10:38:25;;;;;;;14.95;6.15;;;7.30;99.90;;;;;;4996413;28;20477;-51
2021/04/04 10:40:53;;;;;;;16.80;6.85;;;7.50;99.90;;;;;;4995326;28;20019;-52
2021/04/04 10:43:39;;;;;;;19.48;7.43;;;7.60;99.90;;;;;;4996763;28;20084;-56
2021/04/04 10:46:13;;;;;;;15.30;6.30;;;7.60;99.90;;;;;;5016294;28;20036;-56
2021/04/04 10:48:44;;;;;;;15.23;6.50;;;7.80;99.90;;;;;;5012086;28;20038;-55
2021/04/04 10:51:12;;;;;;;15.15;6.50;;;7.90;99.90;;;;;;5013556;28;20026;-52
2021/04/04 10:53:38;;;;;;;13.30;6.72;;;7.90;99.90;;;;;;5014560;28;20557;-57
2021/04/04 10:56:08;;;;;;;14.45;6.00;;;7.90;99.90;;;;;;5015450;28;20029;-56
2021/04/04 10:58:35;;;;;;;13.38;6.07;;;7.50;99.90;;;;;;5015411;28;20475;-50
2021/04/04 11:01:21;;;;;;;14.18;5.95;;;7.50;99.90;;;;;;5016031;28;20032;-52
2021/04/04 11:03:47;;;;;;;14.88;6.20;;;7.70;99.90;;;;;;5013557;28;20044;-57
2021/04/04 11:06:13;;;;;;;15.30;6.80;;;7.60;99.90;;;;;;5015635;28;20034;-53
2021/04/04 11:08:40;;;;;;;13.35;5.72;;;7.40;99.90;;;;;;5015563;28;20141;-56
2021/04/04 11:11:09;;;;;;;15.50;6.45;;;7.30;99.90;;;;;;5015433;28;20018;-57
2021/04/04 11:13:36;;;;;;;15.98;5.85;;;7.40;99.90;;;;;;5014916;28;20038;-52
2021/04/04 11:16:14;;;;;;;15.15;6.20;;;7.40;99.90;;;;;;5016373;28;20032;-55
2021/04/04 11:18:52;;;;;;;14.25;6.32;;;7.20;99.90;;;;;;5015558;28;20018;-56
2021/04/04 11:21:42;;;;;;;13.57;5.95;;;7.40;99.90;;;;;;5014174;28;20045;-52
2021/04/04 11:24:16;;;;;;;15.13;6.00;;;7.50;99.90;;;;;;5014898;28;20021;-54
2021/04/04 11:26:58;;;;;;;15.65;6.78;;;7.50;99.90;;;;;;5013669;28;20048;-53
2021/04/04 11:29:28;;;;;;;15.05;6.88;;;7.50;99.90;;;;;;5015472;28;20029;-55
2021/04/04 11:31:59;;;;;;;15.73;6.40;;;7.50;99.90;;;;;;5015276;28;20026;-50
2021/04/04 11:34:43;;;;;;;19.45;6.68;;;7.60;99.90;;;;;;5013440;28;20032;-55
2021/04/04 11:37:11;;;;;;;16.70;6.35;;;7.70;99.90;;;;;;5014978;28;20021;-54
2021/04/04 11:39:38;;;;;;;17.08;6.72;;;7.90;99.90;;;;;;5013491;28;20044;-51
2021/04/04 11:42:24;;;;;;;15.60;6.60;;;7.80;99.90;;;;;;5013799;28;20030;-57
2021/04/04 11:44:53;;;;;;;19.02;6.93;;;7.80;99.90;;;;;;5015231;28;20025;-53
2021/04/04 11:47:18;;;;;;;;;;;7.70;99.90;;;;;;5015286;28;20034;-55
2021/04/04 11:49:54;;;;;;;14.98;6.43;;;7.70;99.90;;;;;;5014936;28;20421;-53
2021/04/04 11:52:22;;;;;;;13.30;5.95;;;7.70;99.90;;;;;;5015104;28;20394;-52
2021/04/04 11:54:55;;;;;;;;;;;7.70;99.90;;;;;;5015844;28;20026;-51
2021/04/04 11:57:42;;;;;;;18.90;6.25;;;7.60;99.90;;;;;;5014589;28;19905;-53
2021/04/04 12:00:24;;;;;;;15.05;6.38;;;7.50;99.90;;;;;;5014577;28;20437;-54
2021/04/04 12:03:02;;;;;;;16.33;7.05;;;7.40;99.90;;;;;;5014387;28;20037;-52
2021/04/04 12:05:36;;;;;;;17.42;7.13;;;7.40;99.90;;;;;;5014337;28;20056;-55
2021/04/04 12:08:09;;;;;;;17.65;6.72;;;7.30;99.90;;;;;;5014723;28;20034;-57
2021/04/04 12:10:47;;;;;;;15.35;6.95;;;7.40;99.90;;;;;;5011612;28;20057;-56
2021/04/04 12:13:13;;;;;;;;;;;7.50;99.90;;;;;;5013937;28;20034;-54
2021/04/04 12:15:44;;;;;;;15.23;6.28;;;7.60;99.90;;;;;;5014122;28;20365;-53
2021/04/04 12:18:19;;;;;;;15.80;6.40;;;7.50;99.90;;;;;;5029835;23;20073;-60
2021/04/04 12:21:28;;;;;;;15.05;6.85;;;7.50;99.90;;;;;;4644754;28;10000337;-61
2021/04/04 12:24:01;;;;;;;18.90;6.57;;;7.50;99.90;;;;;;5004560;28;20046;-60
2021/04/04 12:26:29;;;;;;;15.63;6.80;;;7.50;99.90;;;;;;5021174;28;20030;-58
2021/04/04 12:28:59;;;;;;;17.60;6.45;;;7.40;99.90;;;;;;5023272;28;20100;-60
2021/04/04 12:31:33;;;;;;;17.88;7.20;;;7.50;99.90;;;;;;4988467;28;20034;-61
2021/04/04 12:34:03;;;;;;;16.63;6.22;;;7.50;99.90;;;;;;5008867;28;20046;-62
2021/04/04 12:36:31;;;;;;;15.60;6.28;;;7.50;99.90;;;;;;4988848;28;20052;-61
2021/04/04 12:39:06;;;;;;;17.98;6.43;;;7.30;99.90;;;;;;4989477;28;20267;-59
2021/04/04 12:41:35;;;;;;;18.05;6.93;;;7.50;99.90;;;;;;4999702;28;20097;-61
2021/04/04 12:44:06;;;;;;;16.95;7.05;;;7.70;99.90;;;;;;4990761;28;20506;-60
2021/04/04 12:46:35;;;;;;;16.33;6.65;;;7.70;99.90;;;;;;5005048;28;20076;-56
2021/04/04 12:49:06;;;;;;;16.58;6.43;;;7.90;99.90;;;;;;4991155;28;20382;-60
2021/04/04 12:51:41;;;;;;;17.85;6.97;;;8.10;99.90;;;;;;5006287;28;20135;-58
2021/04/04 12:54:23;;;;;;;17.27;7.07;;;8.10;99.90;;;;;;4991075;28;20026;-62
2021/04/04 12:56:53;;;;;;;17.30;7.47;;;8.30;99.90;;;;;;5001403;28;20040;-59
2021/04/04 12:59:48;;;;;;;16.98;7.53;;;8.10;99.90;;;;;;5008517;28;20030;-59
2021/04/04 13:02:19;;;;;;;16.33;7.00;;;8.00;99.90;;;;;;5002609;28;20033;-62
2021/04/04 13:05:07;;;;;;;17.35;7.00;;;8.00;99.90;;;;;;5002920;28;20108;-58
2021/04/04 13:07:43;;;;;;;16.30;6.60;;;8.10;99.90;;;;;;4990632;28;20084;-61
2021/04/04 13:10:12;;;;;;;18.17;6.85;;;8.20;99.90;;;;;;4990840;28;20081;-58
2021/04/04 13:12:46;;;;;;;18.73;7.55;;;8.50;99.90;;;;;;5006515;28;20069;-60
2021/04/04 13:15:30;;;;;;;18.02;7.38;;;8.40;99.90;;;;;;4990220;28;20483;-60
2021/04/04 13:18:02;;;;;;;16.88;7.13;;;8.40;99.90;;;;;;4988328;28;20030;-61
2021/04/04 13:20:27;;;;;;;17.92;6.93;;;8.50;99.90;;;;;;5006077;28;20125;-60
2021/04/04 13:22:56;;;;;;;19.20;7.15;;;8.70;99.90;;;;;;5007803;28;20532;-61
2021/04/04 13:25:22;;;;;;;;;;;8.40;99.90;;;;;;4979485;28;20085;-61
2021/04/04 13:28:09;;;;;;;23.58;9.35;;;8.50;99.90;;;;;;4990052;28;19913;-61
2021/04/04 13:30:38;;;;;;;17.92;7.43;;;8.30;99.90;;;;;;5007920;28;20018;-61
2021/04/04 13:33:22;;;;;;;18.95;7.65;;;8.30;99.90;;;;;;4982088;28;20598;-61